createdAt,value
2023-04-14T00:00:15.111Z,99240.97
2023-04-14T00:01:09.191Z,99245.75
2023-04-14T00:01:49.149Z,99245.56
2023-04-14T00:02:29.366Z,99237.59
2023-04-14T00:03:10.453Z,99239.13
2023-04-14T00:03:51.950Z,99234.38
2023-04-14T00:04:33.484Z,99238.44
2023-04-14T00:05:15.500Z,99235.41
2023-04-14T00:05:55.128Z,99227.78
2023-04-14T00:06:35.393Z,99239.59
2023-04-14T00:07:15.112Z,99231.00
2023-04-14T00:07:55.344Z,99233.84
2023-04-14T00:08:36.171Z,99225.22
2023-04-14T00:09:16.396Z,99221.16
2023-04-14T00:09:56.118Z,99219.81
2023-04-14T00:10:36.286Z,99212.00
2023-04-14T00:11:16.123Z,99217.75
2023-04-14T00:11:57.439Z,99220.28
2023-04-14T00:12:38.116Z,99217.09
2023-04-14T00:13:18.175Z,99224.53
2023-04-14T00:13:58.150Z,99219.28
2023-04-14T00:14:38.236Z,99228.59
2023-04-14T00:15:19.130Z,99203.19
2023-04-14T00:15:59.189Z,99208.78
2023-04-14T00:16:40.152Z,99219.13
2023-04-14T00:17:20.319Z,99196.59
2023-04-14T00:18:01.157Z,99205.56
2023-04-14T00:18:41.329Z,99207.25
2023-04-14T00:19:21.149Z,99222.66
2023-04-14T00:20:01.175Z,99223.84
2023-04-14T00:20:42.101Z,99212.66
2023-04-14T00:21:22.214Z,99217.94
2023-04-14T00:22:03.101Z,99221.50
2023-04-14T00:22:43.214Z,99221.81
2023-04-14T00:23:25.108Z,99219.28
2023-04-14T00:24:05.228Z,99221.66
2023-04-14T00:24:50.168Z,99227.94
2023-04-14T00:25:30.362Z,99230.44
2023-04-14T00:26:11.100Z,99226.25
2023-04-14T00:26:51.464Z,99218.63
2023-04-14T00:27:32.122Z,99223.88
2023-04-14T00:28:12.197Z,99199.13
2023-04-14T00:28:53.107Z,99221.97
2023-04-14T00:29:33.233Z,99210.28
2023-04-14T00:30:14.118Z,99220.13
2023-04-14T00:30:54.322Z,99214.72
2023-04-14T00:31:34.113Z,99212.53
2023-04-14T00:32:16.737Z,99218.59
2023-04-14T00:32:58.158Z,99213.34
2023-04-14T00:33:38.204Z,99221.81
2023-04-14T00:34:18.104Z,99217.91
2023-04-14T00:35:00.098Z,99217.91
2023-04-14T00:35:40.200Z,99216.91
2023-04-14T00:36:20.192Z,99219.13
2023-04-14T00:37:01.100Z,99216.72
2023-04-14T00:37:41.187Z,99220.47
2023-04-14T00:38:22.113Z,99214.88
2023-04-14T00:39:02.518Z,99213.31
2023-04-14T00:39:43.084Z,99222.44
2023-04-14T00:40:23.194Z,99204.16
2023-04-14T00:41:04.092Z,99231.59
2023-04-14T00:41:44.250Z,99231.25
2023-04-14T00:42:24.098Z,99215.66
2023-04-14T00:43:04.215Z,99216.66
2023-04-14T00:43:44.086Z,99203.13
2023-04-14T00:44:25.442Z,99215.81
2023-04-14T00:45:06.079Z,99226.31
2023-04-14T00:45:52.527Z,99225.81
2023-04-14T00:46:32.155Z,99216.69
2023-04-14T00:47:12.163Z,99224.97
2023-04-14T00:47:57.237Z,99230.91
2023-04-14T00:48:37.204Z,99227.69
2023-04-14T00:49:18.118Z,99226.47
2023-04-14T00:49:58.173Z,99226.47
2023-04-14T00:50:40.084Z,99237.31
2023-04-14T00:51:20.156Z,99226.16
2023-04-14T00:52:01.194Z,99237.31
2023-04-14T00:52:42.551Z,99232.28
2023-04-14T00:53:23.071Z,99225.81
2023-04-14T00:54:03.378Z,99235.63
2023-04-14T00:54:45.116Z,99226.81
2023-04-14T00:55:26.443Z,99225.47
2023-04-14T00:56:07.103Z,99217.34
2023-04-14T00:56:47.256Z,99223.94
2023-04-14T00:57:28.093Z,99230.34
2023-04-14T00:58:08.207Z,99229.13
2023-04-14T00:58:49.085Z,99228.09
2023-04-14T00:59:30.146Z,99225.41
2023-04-14T01:00:15.064Z,99209.81
2023-04-14T01:00:55.750Z,99221.19
2023-04-14T01:01:37.177Z,99219.34
2023-04-14T01:02:18.278Z,99221.38
2023-04-14T01:02:58.146Z,99222.88
2023-04-14T01:03:38.364Z,99242.19
2023-04-14T01:04:19.208Z,99228.63
2023-04-14T01:04:59.384Z,99232.34
2023-04-14T01:05:41.066Z,99228.81
2023-04-14T01:06:21.466Z,99229.13
2023-04-14T01:07:01.070Z,99223.00
2023-04-14T01:07:41.305Z,99212.53
2023-04-14T01:08:21.111Z,99226.53
2023-04-14T01:09:02.840Z,99221.31
2023-04-14T01:09:44.076Z,99220.28
2023-04-14T01:10:24.150Z,99212.16
2023-04-14T01:11:43.072Z,99217.56
2023-04-14T01:13:13.153Z,99207.41
2023-04-14T01:14:21.115Z,99215.88
2023-04-14T01:15:23.224Z,99206.38
2023-04-14T01:16:10.119Z,99198.97
2023-04-14T01:16:51.662Z,99213.50
2023-04-14T01:18:05.102Z,99216.53
2023-04-14T01:18:59.453Z,99222.81
2023-04-14T01:20:16.109Z,99213.63
2023-04-14T01:20:59.235Z,99210.25
2023-04-14T01:21:47.054Z,99213.50
2023-04-14T01:22:29.121Z,99222.81
2023-04-14T01:23:25.049Z,99207.88
2023-04-14T01:24:57.188Z,99217.03
2023-04-14T01:25:48.117Z,99202.66
2023-04-14T01:26:37.118Z,99214.84
2023-04-14T01:27:38.094Z,99204.19
2023-04-14T01:28:49.734Z,99217.50
2023-04-14T01:30:24.047Z,99212.91
2023-04-14T01:31:19.085Z,99221.91
2023-04-14T01:32:10.580Z,99212.06
2023-04-14T01:33:01.168Z,99215.81
2023-04-14T01:33:37.186Z,99207.50
2023-04-14T01:34:46.147Z,99211.38
2023-04-14T01:35:27.126Z,99209.03
2023-04-14T01:36:19.164Z,99215.09
2023-04-14T01:37:08.222Z,99203.28
2023-04-14T01:37:59.035Z,99218.31
2023-04-14T01:38:36.042Z,99207.16
2023-04-14T01:39:32.085Z,99219.16
2023-04-14T01:40:11.339Z,99210.34
2023-04-14T01:41:01.047Z,99219.81
2023-04-14T01:41:42.104Z,99198.19
2023-04-14T01:42:40.058Z,99222.34
2023-04-14T01:43:40.048Z,99219.81
2023-04-14T01:44:35.026Z,99220.19
2023-04-14T01:45:38.050Z,99198.69
2023-04-14T01:46:34.049Z,99221.88
2023-04-14T01:47:21.109Z,99220.53
2023-04-14T01:48:02.180Z,99224.78
2023-04-14T01:48:44.068Z,99216.78
2023-04-14T01:49:26.128Z,99217.28
2023-04-14T01:50:07.006Z,99210.06
2023-04-14T01:50:48.125Z,99218.84
2023-04-14T01:51:29.019Z,99226.63
2023-04-14T01:52:24.033Z,99236.63
2023-04-14T01:53:20.069Z,99230.88
2023-04-14T01:54:16.064Z,99209.44
2023-04-14T01:55:12.021Z,99221.47
2023-04-14T01:56:07.046Z,99223.66
2023-04-14T01:57:02.050Z,99220.97
2023-04-14T01:57:53.043Z,99223.72
2023-04-14T01:58:29.608Z,99225.44
2023-04-14T01:59:18.006Z,99229.84
2023-04-14T01:59:52.642Z,99228.53
2023-04-14T02:00:44.087Z,99230.94
2023-04-14T02:01:18.234Z,99225.84
2023-04-14T02:02:08.103Z,99237.91
2023-04-14T02:02:43.395Z,99222.81
2023-04-14T02:03:26.198Z,99202.53
2023-04-14T02:04:08.238Z,99211.13
2023-04-14T02:04:49.034Z,99230.63
2023-04-14T02:05:30.113Z,99220.97
2023-04-14T02:06:13.093Z,99233.69
2023-04-14T02:06:55.359Z,99230.81
2023-04-14T02:07:36.028Z,99213.72
2023-04-14T02:08:19.150Z,99231.84
2023-04-14T02:09:00.192Z,99235.22
2023-04-14T02:09:42.236Z,99234.72
2023-04-14T02:10:23.995Z,99226.41
2023-04-14T02:11:05.176Z,99233.03
2023-04-14T02:11:47.004Z,99228.28
2023-04-14T02:12:28.245Z,99229.78
2023-04-14T02:13:10.015Z,99237.44
2023-04-14T02:13:50.160Z,99219.81
2023-04-14T02:14:31.024Z,99226.94
2023-04-14T02:15:17.253Z,99231.66
2023-04-14T02:15:58.000Z,99227.44
2023-04-14T02:16:39.237Z,99234.03
2023-04-14T02:17:21.058Z,99227.09
2023-04-14T02:18:03.116Z,99226.44
2023-04-14T02:18:45.997Z,99244.22
2023-04-14T02:19:27.156Z,99231.66
2023-04-14T02:20:08.024Z,99242.84
2023-04-14T02:20:49.150Z,99243.16
2023-04-14T02:21:32.005Z,99233.00
2023-04-14T02:22:12.091Z,99230.13
2023-04-14T02:22:52.014Z,99226.91
2023-04-14T02:23:32.126Z,99227.28
2023-04-14T02:24:12.995Z,99225.06
2023-04-14T02:24:56.142Z,99226.44
2023-04-14T02:25:40.089Z,99240.97
2023-04-14T02:26:23.170Z,99250.63
2023-04-14T02:27:17.012Z,99247.22
2023-04-14T02:28:03.080Z,99249.28
2023-04-14T02:28:49.975Z,99250.28
2023-04-14T02:29:31.054Z,99241.84
2023-04-14T02:30:45.029Z,99258.09
2023-04-14T02:31:30.084Z,99256.19
2023-04-14T02:32:12.992Z,99258.75
2023-04-14T02:33:00.307Z,99260.09
2023-04-14T02:33:43.002Z,99256.06
2023-04-14T02:34:26.234Z,99260.59
2023-04-14T02:35:14.997Z,99267.88
2023-04-14T02:36:31.095Z,99267.50
2023-04-14T02:37:38.038Z,99261.38
2023-04-14T02:38:40.996Z,99244.78
2023-04-14T02:39:57.982Z,99258.06
2023-04-14T02:40:54.994Z,99250.06
2023-04-14T02:41:52.023Z,99237.72
2023-04-14T02:42:48.057Z,99251.28
2023-04-14T02:43:46.962Z,99253.66
2023-04-14T02:44:48.962Z,99249.44
2023-04-14T02:45:47.099Z,99243.88
2023-04-14T02:46:42.996Z,99234.38
2023-04-14T02:47:33.000Z,99247.22
2023-04-14T02:48:20.227Z,99241.66
2023-04-14T02:49:02.167Z,99245.91
2023-04-14T02:49:54.165Z,99236.09
2023-04-14T02:50:35.964Z,99229.97
2023-04-14T02:51:18.066Z,99223.53
2023-04-14T02:52:05.031Z,99242.31
2023-04-14T02:52:47.028Z,99239.13
2023-04-14T02:53:42.080Z,99231.84
2023-04-14T02:54:36.979Z,99240.47
2023-04-14T02:55:33.143Z,99235.75
2023-04-14T02:56:26.938Z,99209.81
2023-04-14T02:57:21.937Z,99220.31
2023-04-14T02:58:17.005Z,99225.56
2023-04-14T02:59:11.975Z,99228.28
2023-04-14T03:00:07.040Z,99222.88
2023-04-14T03:01:01.226Z,99226.59
2023-04-14T03:01:56.065Z,99229.66
2023-04-14T03:02:52.028Z,99214.22
2023-04-14T03:03:44.020Z,99221.88
2023-04-14T03:04:18.077Z,99210.00
2023-04-14T03:05:05.967Z,99206.63
2023-04-14T03:05:41.069Z,99214.59
2023-04-14T03:06:28.985Z,99215.59
2023-04-14T03:07:03.042Z,99211.03
2023-04-14T03:07:50.992Z,99200.03
2023-04-14T03:08:26.086Z,99207.78
2023-04-14T03:09:06.990Z,99198.81
2023-04-14T03:09:48.116Z,99217.09
2023-04-14T03:10:29.972Z,99205.59
2023-04-14T03:11:10.298Z,99210.34
2023-04-14T03:11:51.152Z,99214.41
2023-04-14T03:12:32.048Z,99199.50
2023-04-14T03:13:13.990Z,99211.19
2023-04-14T03:13:57.108Z,99204.56
2023-04-14T03:14:38.026Z,99197.81
2023-04-14T03:15:18.032Z,99205.78
2023-04-14T03:15:59.011Z,99197.81
2023-04-14T03:16:39.601Z,99193.56
2023-04-14T03:17:22.081Z,99206.28
2023-04-14T03:18:04.243Z,99204.22
2023-04-14T03:18:44.952Z,99199.34
2023-04-14T03:19:30.249Z,99198.50
2023-04-14T03:20:10.976Z,99200.34
2023-04-14T03:20:55.722Z,99199.84
2023-04-14T03:21:36.943Z,99208.81
2023-04-14T03:22:19.134Z,99213.03
2023-04-14T03:23:07.939Z,99203.22
2023-04-14T03:23:48.562Z,99210.53
2023-04-14T03:24:36.960Z,99207.13
2023-04-14T03:25:24.013Z,99208.66
2023-04-14T03:26:19.106Z,99194.78
2023-04-14T03:27:23.949Z,99207.28
2023-04-14T03:28:21.983Z,99205.41
2023-04-14T03:29:16.938Z,99210.00
2023-04-14T03:30:16.944Z,99203.22
2023-04-14T03:31:01.227Z,99210.84
2023-04-14T03:31:44.430Z,99199.16
2023-04-14T03:32:26.952Z,99197.97
2023-04-14T03:33:13.077Z,99208.66
2023-04-14T03:33:59.942Z,99193.38
2023-04-14T03:34:44.651Z,99210.81
2023-04-14T03:35:27.971Z,99189.34
2023-04-14T03:36:15.945Z,99210.66
2023-04-14T03:37:10.988Z,99200.81
2023-04-14T03:38:05.942Z,99207.97
2023-04-14T03:39:04.970Z,99206.09
2023-04-14T03:40:04.923Z,99202.88
2023-04-14T03:41:01.935Z,99196.13
2023-04-14T03:41:44.994Z,99203.91
2023-04-14T03:42:28.110Z,99207.94
2023-04-14T03:43:09.941Z,99196.94
2023-04-14T03:43:57.029Z,99201.16
2023-04-14T03:44:41.962Z,99199.84
2023-04-14T03:45:23.747Z,99206.25
2023-04-14T03:46:04.939Z,99189.19
2023-04-14T03:46:53.000Z,99192.41
2023-04-14T03:47:47.045Z,99184.94
2023-04-14T03:48:43.036Z,99186.63
2023-04-14T03:49:38.945Z,99194.78
2023-04-14T03:50:48.914Z,99170.41
2023-04-14T03:51:47.936Z,99180.22
2023-04-14T03:52:29.925Z,99195.44
2023-04-14T03:53:12.502Z,99188.00
2023-04-14T03:53:55.865Z,99177.53
2023-04-14T03:54:40.024Z,99183.59
2023-04-14T03:55:20.909Z,99186.97
2023-04-14T03:56:03.002Z,99175.47
2023-04-14T03:56:44.908Z,99193.75
2023-04-14T03:57:26.190Z,99185.63
2023-04-14T03:58:06.935Z,99187.66
2023-04-14T03:58:51.410Z,99181.22
2023-04-14T03:59:33.926Z,99185.09
2023-04-14T04:00:15.913Z,99175.47
2023-04-14T04:00:57.903Z,99177.34
2023-04-14T04:01:39.996Z,99184.28
2023-04-14T04:03:30.221Z,99178.00
2023-04-14T04:04:07.113Z,99175.13
2023-04-14T04:04:54.946Z,99186.97
2023-04-14T04:05:29.019Z,99184.59
2023-04-14T04:06:15.964Z,99172.78
2023-04-14T04:06:50.166Z,99181.38
2023-04-14T04:07:38.928Z,99184.63
2023-04-14T04:08:14.014Z,99173.09
2023-04-14T04:08:55.911Z,99191.72
2023-04-14T04:09:36.969Z,99180.56
2023-04-14T04:10:22.916Z,99184.28
2023-04-14T04:11:03.006Z,99178.84
2023-04-14T04:11:43.924Z,99179.69
2023-04-14T04:12:27.206Z,99184.28
2023-04-14T04:13:14.897Z,99180.16
2023-04-14T04:14:02.961Z,99181.69
2023-04-14T04:14:56.889Z,99182.38
2023-04-14T04:15:51.922Z,99182.03
2023-04-14T04:16:47.935Z,99185.44
2023-04-14T04:17:44.915Z,99190.53
2023-04-14T04:18:40.939Z,99165.81
2023-04-14T04:19:29.896Z,99190.03
2023-04-14T04:20:05.524Z,99169.34
2023-04-14T04:20:53.981Z,99172.38
2023-04-14T04:21:28.045Z,99181.03
2023-04-14T04:22:15.908Z,99181.38
2023-04-14T04:22:51.507Z,99183.91
2023-04-14T04:23:39.909Z,99184.09
2023-04-14T04:24:14.980Z,99170.69
2023-04-14T04:24:55.909Z,99160.56
2023-04-14T04:25:36.960Z,99173.03
2023-04-14T04:26:17.882Z,99166.63
2023-04-14T04:26:59.407Z,99169.66
2023-04-14T04:27:39.895Z,99180.34
2023-04-14T04:28:19.979Z,99177.13
2023-04-14T04:29:04.889Z,99176.97
2023-04-14T04:29:44.987Z,99161.56
2023-04-14T04:30:26.921Z,99171.41
2023-04-14T04:31:07.977Z,99170.38
2023-04-14T04:31:48.889Z,99174.44
2023-04-14T04:32:29.605Z,99181.38
2023-04-14T04:33:10.958Z,99168.19
2023-04-14T04:33:51.955Z,99173.44
2023-04-14T04:34:32.941Z,99160.25
2023-04-14T04:35:14.959Z,99172.44
2023-04-14T04:35:55.905Z,99162.25
2023-04-14T04:36:37.057Z,99171.75
2023-04-14T04:37:17.899Z,99159.22
2023-04-14T04:38:00.894Z,99164.81
2023-04-14T04:38:40.856Z,99168.53
2023-04-14T04:39:20.975Z,99161.91
2023-04-14T04:40:04.874Z,99170.06
2023-04-14T04:40:45.975Z,99169.88
2023-04-14T04:41:34.853Z,99169.22
2023-04-14T04:42:16.582Z,99172.94
2023-04-14T04:42:56.883Z,99167.69
2023-04-14T04:43:37.015Z,99171.91
2023-04-14T04:44:17.879Z,99170.03
2023-04-14T04:44:58.031Z,99168.88
2023-04-14T04:46:04.902Z,99174.78
2023-04-14T04:47:09.935Z,99176.31
2023-04-14T04:48:03.904Z,99150.59
2023-04-14T04:48:57.984Z,99180.19
2023-04-14T04:49:52.873Z,99174.41
2023-04-14T04:50:46.920Z,99175.78
2023-04-14T04:51:40.913Z,99171.72
2023-04-14T04:52:27.953Z,99173.41
2023-04-14T04:53:01.926Z,99176.75
2023-04-14T04:53:48.858Z,99177.59
2023-04-14T04:54:22.943Z,99162.69
2023-04-14T04:55:10.899Z,99181.66
2023-04-14T04:55:44.926Z,99172.19
2023-04-14T04:56:32.880Z,99183.53
2023-04-14T04:57:07.024Z,99178.78
2023-04-14T04:57:47.877Z,99154.75
2023-04-14T04:58:28.046Z,99179.16
2023-04-14T04:59:08.842Z,99177.78
2023-04-14T04:59:48.952Z,99188.97
2023-04-14T05:00:29.863Z,99184.84
2023-04-14T05:01:19.010Z,99180.28
2023-04-14T05:01:59.002Z,99178.59
2023-04-14T05:02:40.003Z,99170.31
2023-04-14T05:03:19.931Z,99178.75
2023-04-14T05:04:13.909Z,99178.41
2023-04-14T05:05:07.918Z,99184.84
2023-04-14T05:06:01.833Z,99176.72
2023-04-14T05:06:55.901Z,99179.94
2023-04-14T05:07:49.890Z,99152.69
2023-04-14T05:08:36.906Z,99180.13
2023-04-14T05:09:10.952Z,99176.75
2023-04-14T05:09:57.851Z,99186.56
2023-04-14T05:10:31.963Z,99164.75
2023-04-14T05:11:18.878Z,99186.72
2023-04-14T05:11:53.009Z,99182.84
2023-04-14T05:12:39.901Z,99181.16
2023-04-14T05:13:14.127Z,99187.56
2023-04-14T05:14:00.892Z,99178.75
2023-04-14T05:14:34.957Z,99169.94
2023-04-14T05:15:22.885Z,99172.13
2023-04-14T05:15:57.705Z,99184.16
2023-04-14T05:16:44.865Z,99177.19
2023-04-14T05:17:18.973Z,99184.09
2023-04-14T05:18:05.866Z,99175.50
2023-04-14T05:18:41.260Z,99189.53
2023-04-14T05:19:22.207Z,99180.56
2023-04-14T05:20:02.907Z,99173.25
2023-04-14T05:20:44.105Z,99171.56
2023-04-14T05:21:24.082Z,99165.66
2023-04-14T05:22:03.977Z,99165.66
2023-04-14T05:22:44.916Z,99176.34
2023-04-14T05:23:24.899Z,99170.72
2023-04-14T05:24:05.378Z,99164.31
2023-04-14T05:24:45.853Z,99171.28
2023-04-14T05:25:26.143Z,99173.88
2023-04-14T05:26:27.125Z,99169.28
2023-04-14T05:27:14.205Z,99178.25
2023-04-14T05:27:54.987Z,99164.22
2023-04-14T05:28:35.295Z,99179.81
2023-04-14T05:29:15.867Z,99177.75
2023-04-14T05:30:02.893Z,99170.97
2023-04-14T05:30:57.287Z,99166.56
2023-04-14T05:31:52.850Z,99170.97
2023-04-14T05:32:46.849Z,99156.06
2023-04-14T05:33:40.843Z,99151.34
2023-04-14T05:34:34.892Z,99159.16
2023-04-14T05:35:23.871Z,99157.78
2023-04-14T05:35:58.022Z,99159.13
2023-04-14T05:36:44.823Z,99158.63
2023-04-14T05:37:19.654Z,99160.50
2023-04-14T05:38:06.839Z,99152.69
2023-04-14T05:38:44.543Z,99156.44
2023-04-14T05:39:31.843Z,99149.97
2023-04-14T05:40:06.082Z,99159.28
2023-04-14T05:40:46.823Z,99159.13
2023-04-14T05:41:26.996Z,99164.56
2023-04-14T05:42:07.938Z,99155.41
2023-04-14T05:42:47.887Z,99153.38
2023-04-14T05:43:27.830Z,99141.84
2023-04-14T05:44:08.013Z,99160.81
2023-04-14T05:44:47.815Z,99155.41
2023-04-14T05:45:27.924Z,99128.69
2023-04-14T05:46:08.870Z,99152.03
2023-04-14T05:46:49.116Z,99153.22
2023-04-14T05:47:28.842Z,99150.66
2023-04-14T05:48:08.967Z,99146.44
2023-04-14T05:48:48.858Z,99154.75
2023-04-14T05:49:28.928Z,99161.53
2023-04-14T05:50:10.825Z,99151.53
2023-04-14T05:50:51.090Z,99151.84
2023-04-14T05:51:30.892Z,99157.78
2023-04-14T05:52:10.999Z,99160.66
2023-04-14T05:52:50.831Z,99155.78
2023-04-14T05:53:30.932Z,99159.16
2023-04-14T05:54:11.834Z,99155.09
2023-04-14T05:54:51.908Z,99154.41
2023-04-14T05:55:32.839Z,99157.97
2023-04-14T05:56:13.975Z,99151.72
2023-04-14T05:56:53.835Z,99146.63
2023-04-14T05:57:33.982Z,99143.38
2023-04-14T05:58:14.844Z,99153.91
2023-04-14T05:58:55.793Z,99154.75
2023-04-14T05:59:35.829Z,99151.00
2023-04-14T06:00:17.906Z,99144.94
2023-04-14T06:00:57.861Z,99148.63
2023-04-14T06:01:37.968Z,99150.00
2023-04-14T06:03:20.061Z,99145.22
2023-04-14T06:03:54.172Z,99142.88
2023-04-14T06:04:41.960Z,99138.31
2023-04-14T06:05:18.526Z,99123.25
2023-04-14T06:06:05.799Z,99124.00
2023-04-14T06:06:40.263Z,99145.59
2023-04-14T06:07:26.808Z,99147.97
2023-04-14T06:08:00.990Z,99152.69
2023-04-14T06:08:40.817Z,99140.19
2023-04-14T06:09:21.997Z,99150.03
2023-04-14T06:10:02.810Z,99154.38
2023-04-14T06:10:43.960Z,99152.56
2023-04-14T06:11:23.785Z,99131.56
2023-04-14T06:12:03.882Z,99150.31
2023-04-14T06:12:44.805Z,99149.66
2023-04-14T06:13:24.918Z,99151.50
2023-04-14T06:14:07.832Z,99146.94
2023-04-14T06:14:47.925Z,99147.78
2023-04-14T06:15:27.800Z,99153.72
2023-04-14T06:16:07.960Z,99151.34
2023-04-14T06:16:47.810Z,99145.22
2023-04-14T06:17:28.992Z,99147.41
2023-04-14T06:18:09.791Z,99143.19
2023-04-14T06:18:49.869Z,99147.06
2023-04-14T06:19:30.807Z,99141.16
2023-04-14T06:20:11.906Z,99149.22
2023-04-14T06:20:52.817Z,99149.41
2023-04-14T06:21:32.883Z,99138.63
2023-04-14T06:22:14.802Z,99145.53
2023-04-14T06:22:54.885Z,99145.53
2023-04-14T06:23:34.878Z,99128.69
2023-04-14T06:24:14.897Z,99142.44
2023-04-14T06:24:55.925Z,99141.59
2023-04-14T06:25:35.977Z,99138.84
2023-04-14T06:26:16.790Z,99137.66
2023-04-14T06:26:58.461Z,99137.69
2023-04-14T06:27:38.806Z,99136.50
2023-04-14T06:28:19.969Z,99123.50
2023-04-14T06:29:00.067Z,99132.97
2023-04-14T06:29:41.002Z,99128.63
2023-04-14T06:30:24.868Z,99132.13
2023-04-14T06:31:04.869Z,99117.25
2023-04-14T06:31:44.807Z,99118.78
2023-04-14T06:32:25.865Z,99130.63
2023-04-14T06:33:10.849Z,99127.06
2023-04-14T06:33:52.894Z,99124.69
2023-04-14T06:34:33.802Z,99118.47
2023-04-14T06:35:25.680Z,99128.94
2023-04-14T06:36:12.802Z,99119.97
2023-04-14T06:36:56.717Z,99115.91
2023-04-14T06:37:37.814Z,99115.72
2023-04-14T06:38:17.937Z,99122.63
2023-04-14T06:38:58.935Z,99125.50
2023-04-14T06:39:38.872Z,99115.00
2023-04-14T06:40:19.779Z,99113.13
2023-04-14T06:40:59.910Z,99118.16
2023-04-14T06:41:40.810Z,99100.75
2023-04-14T06:42:21.188Z,99116.16
2023-04-14T06:43:01.763Z,99107.84
2023-04-14T06:43:42.838Z,99120.41
2023-04-14T06:44:22.753Z,99119.38
2023-04-14T06:45:02.862Z,99112.94
2023-04-14T06:45:43.769Z,99111.06
2023-04-14T06:46:23.901Z,99107.19
2023-04-14T06:47:04.814Z,99111.91
2023-04-14T06:47:44.920Z,99110.88
2023-04-14T06:48:24.769Z,99114.22
2023-04-14T06:49:04.942Z,99108.28
2023-04-14T06:49:45.794Z,99114.72
2023-04-14T06:50:25.959Z,99111.81
2023-04-14T06:51:06.762Z,99106.41
2023-04-14T06:51:46.867Z,99099.75
2023-04-14T06:52:27.829Z,99088.78
2023-04-14T06:53:09.263Z,99109.81
2023-04-14T06:53:49.776Z,99102.66
2023-04-14T06:54:31.774Z,99103.88
2023-04-14T06:55:12.776Z,99097.28
2023-04-14T06:55:59.254Z,99107.44
2023-04-14T06:56:39.741Z,99086.84
2023-04-14T06:57:19.933Z,99100.84
2023-04-14T06:57:59.760Z,99090.19
2023-04-14T06:58:40.433Z,99095.88
2023-04-14T06:59:21.770Z,99088.78
2023-04-14T07:00:02.045Z,99092.84
2023-04-14T07:00:42.794Z,99088.31
2023-04-14T07:01:22.871Z,99084.06
2023-04-14T07:02:04.788Z,99101.03
2023-04-14T07:02:44.913Z,99097.22
2023-04-14T07:03:26.003Z,99061.28
2023-04-14T07:04:06.013Z,99095.75
2023-04-14T07:04:54.822Z,99068.81
2023-04-14T07:05:28.999Z,99094.69
2023-04-14T07:06:23.771Z,99085.41
2023-04-14T07:07:01.589Z,99085.41
2023-04-14T07:07:50.787Z,99088.47
2023-04-14T07:08:24.463Z,99080.16
2023-04-14T07:09:04.772Z,99081.97
2023-04-14T07:09:38.865Z,99079.00
2023-04-14T07:10:12.810Z,99084.75
2023-04-14T07:10:53.949Z,99083.94
2023-04-14T07:11:29.807Z,99081.41
2023-04-14T07:12:03.528Z,99085.44
2023-04-14T07:12:43.732Z,99074.59
2023-04-14T07:13:17.852Z,99061.41
2023-04-14T07:13:51.481Z,99079.25
2023-04-14T07:14:32.756Z,99070.09
2023-04-14T07:15:06.868Z,99072.50
2023-04-14T07:15:47.506Z,99078.63
2023-04-14T07:16:27.767Z,99072.88
2023-04-14T07:17:01.859Z,99049.19
2023-04-14T07:17:38.487Z,99074.91
2023-04-14T07:18:19.727Z,99075.09
2023-04-14T07:18:53.887Z,99059.19
2023-04-14T07:19:27.538Z,99051.97
2023-04-14T07:20:08.776Z,99069.72
2023-04-14T07:20:42.842Z,99067.47
2023-04-14T07:21:16.507Z,99073.94
2023-04-14T07:21:57.742Z,99064.44
2023-04-14T07:22:31.800Z,99069.13
2023-04-14T07:23:05.644Z,99068.63
2023-04-14T07:23:46.748Z,99067.66
2023-04-14T07:24:20.963Z,99068.19
2023-04-14T07:24:54.484Z,99071.75
2023-04-14T07:25:35.752Z,99054.16
2023-04-14T07:26:09.815Z,99076.00
2023-04-14T07:26:44.278Z,99067.84
2023-04-14T07:27:24.716Z,99066.81
2023-04-14T07:28:03.607Z,99075.09
2023-04-14T07:28:38.569Z,99070.38
2023-04-14T07:29:19.780Z,99057.00
2023-04-14T07:29:54.310Z,99068.50
2023-04-14T07:30:28.533Z,99072.19
2023-04-14T07:31:15.755Z,99066.41
2023-04-14T07:31:49.997Z,99074.91
2023-04-14T07:32:24.674Z,99070.81
2023-04-14T07:33:06.810Z,99067.78
2023-04-14T07:33:40.824Z,99072.16
2023-04-14T07:34:14.493Z,99072.47
2023-04-14T07:34:55.267Z,99073.31
2023-04-14T07:35:31.858Z,99074.16
2023-04-14T07:36:05.553Z,99064.78
2023-04-14T07:36:46.738Z,99048.94
2023-04-14T07:37:20.840Z,99054.53
2023-04-14T07:37:55.600Z,99077.94
2023-04-14T07:38:35.873Z,99078.97
2023-04-14T07:39:09.892Z,99063.09
2023-04-14T07:39:43.476Z,99059.34
2023-04-14T07:40:23.898Z,99074.47
2023-04-14T07:40:57.844Z,99068.03
2023-04-14T07:41:31.563Z,99066.47
2023-04-14T07:42:12.740Z,99079.03
2023-04-14T07:42:46.771Z,99064.97
2023-04-14T07:43:20.499Z,99066.97
2023-04-14T07:44:01.880Z,99074.59
2023-04-14T07:44:35.925Z,99075.53
2023-04-14T07:45:10.625Z,99075.53
2023-04-14T07:45:50.702Z,99074.38
2023-04-14T07:46:25.002Z,99064.56
2023-04-14T07:46:58.691Z,99067.59
2023-04-14T07:47:39.787Z,99074.34
2023-04-14T07:48:13.904Z,99069.81
2023-04-14T07:48:47.477Z,99075.53
2023-04-14T07:49:27.708Z,99071.69
2023-04-14T07:50:03.807Z,99079.09
2023-04-14T07:50:37.940Z,99068.94
2023-04-14T07:51:18.738Z,99078.75
2023-04-14T07:51:52.844Z,99069.03
2023-04-14T07:52:26.477Z,99074.59
2023-04-14T07:53:07.830Z,99080.31
2023-04-14T07:53:43.454Z,99073.47
2023-04-14T07:54:17.460Z,99077.91
2023-04-14T07:54:57.694Z,99079.94
2023-04-14T07:55:31.786Z,99067.94
2023-04-14T07:56:06.688Z,99078.53
2023-04-14T07:56:47.701Z,99080.91
2023-04-14T07:57:21.834Z,99082.53
2023-04-14T07:57:55.521Z,99078.66
2023-04-14T07:58:35.730Z,99082.41
2023-04-14T07:59:12.258Z,99072.38
2023-04-14T07:59:46.454Z,99077.13
2023-04-14T08:00:28.747Z,99072.38
2023-04-14T08:01:02.980Z,99073.75
2023-04-14T08:01:36.471Z,99080.00
2023-04-14T08:03:19.841Z,99074.69
2023-04-14T08:04:00.890Z,99088.19
2023-04-14T08:04:41.232Z,99083.06
2023-04-14T08:05:28.749Z,99079.59
2023-04-14T08:06:03.813Z,99073.22
2023-04-14T08:06:50.730Z,99086.16
2023-04-14T08:07:24.756Z,99078.66
2023-04-14T08:08:12.675Z,99087.59
2023-04-14T08:08:47.707Z,99082.69
2023-04-14T08:09:28.728Z,99084.22
2023-04-14T08:10:09.784Z,99083.84
2023-04-14T08:10:49.684Z,99083.75
2023-04-14T08:11:29.795Z,99089.19
2023-04-14T08:12:10.695Z,99081.97
2023-04-14T08:12:50.878Z,99082.28
2023-04-14T08:13:30.691Z,99081.31
2023-04-14T08:14:10.818Z,99080.75
2023-04-14T08:14:51.712Z,99090.03
2023-04-14T08:15:32.441Z,99087.97
2023-04-14T08:16:13.701Z,99086.38
2023-04-14T08:16:53.773Z,99075.13
2023-04-14T08:17:33.711Z,99080.66
2023-04-14T08:18:13.812Z,99079.72
2023-04-14T08:18:55.029Z,99059.19
2023-04-14T08:19:37.040Z,99083.50
2023-04-14T08:20:17.666Z,99079.72
2023-04-14T08:20:57.927Z,99085.38
2023-04-14T08:21:37.672Z,99063.69
2023-04-14T08:22:18.578Z,99080.66
2023-04-14T08:22:58.667Z,99081.78
2023-04-14T08:23:38.741Z,99076.44
2023-04-14T08:24:19.762Z,99083.09
2023-04-14T08:24:59.745Z,99077.75
2023-04-14T08:25:39.721Z,99090.72
2023-04-14T08:26:21.304Z,99062.19
2023-04-14T08:27:03.676Z,99082.66
2023-04-14T08:27:44.741Z,99069.22
2023-04-14T08:28:25.666Z,99070.63
2023-04-14T08:29:06.003Z,99074.97
2023-04-14T08:29:45.659Z,99080.28
2023-04-14T08:30:26.190Z,99091.06
2023-04-14T08:31:06.692Z,99087.41